TimeAKST,TemperatureF,Dew PointF,Humidity,Sea Level PressureIn,VisibilityMPH,Wind Direction,Wind SpeedMPH,Gust SpeedMPH,PrecipitationIn,Events,Conditions,WindDirDegrees,DateUTC
12:56 AM,34.0,26.1,73,-9999,10.0,WNW,20.7,-,0.00,,Overcast,290,2012-12-27 09:56:00
1:56 AM,34.0,25.0,70,-9999,10.0,WNW,23.0,29.9,0.00,,Overcast,290,2012-12-27 10:56:00
2:56 AM,34.0,25.0,70,-9999,10.0,WNW,20.7,26.5,0.00,,Overcast,290,2012-12-27 11:56:00
3:56 AM,34.0,24.1,67,-9999,10.0,WNW,15.0,23.0,N/A,,Overcast,290,2012-12-27 12:56:00
4:56 AM,33.1,23.0,66,-9999,10.0,WNW,15.0,-,N/A,,Overcast,290,2012-12-27 13:56:00
5:56 AM,33.1,21.9,64,-9999,10.0,West,10.4,-,N/A,,Mostly Cloudy,270,2012-12-27 14:56:00
6:56 AM,32.0,21.9,66,29.15,10.0,SSW,10.4,-,N/A,,Partly Cloudy,210,2012-12-27 15:56:00
7:56 AM,30.9,21.9,69,29.21,10.0,WSW,8.1,-,N/A,,Partly Cloudy,240,2012-12-27 16:56:00
8:56 AM,30.9,23.0,72,29.19,10.0,WSW,6.9,-,N/A,,Partly Cloudy,250,2012-12-27 17:56:00
9:56 AM,28.0,19.9,72,29.20,10.0,Calm,Calm,-,N/A,,Partly Cloudy,0,2012-12-27 18:56:00
10:56 AM,27.0,19.9,75,29.19,10.0,North,3.5,-,N/A,,Partly Cloudy,360,2012-12-27 19:56:00
11:56 AM,28.9,21.0,72,29.18,10.0,SSE,5.8,-,N/A,,Scattered Clouds,160,2012-12-27 20:56:00
12:56 PM,30.9,21.9,69,29.16,10.0,North,3.5,-,N/A,,Scattered Clouds,360,2012-12-27 21:56:00
1:56 PM,30.9,21.9,69,29.13,10.0,South,4.6,-,N/A,,Partly Cloudy,180,2012-12-27 22:56:00
2:56 PM,30.9,23.0,72,29.10,10.0,SSW,8.1,-,N/A,,Partly Cloudy,200,2012-12-27 23:56:00
3:56 PM,32.0,23.0,69,29.07,10.0,South,5.8,-,N/A,,Mostly Cloudy,180,2012-12-28 00:56:00
4:48 PM,32.0,24.8,75,29.03,2.0,SSE,9.2,-,0.00,Snow,Light Snow,150,2012-12-28 01:48:00
5:01 PM,30.2,26.6,86,29.03,1.8,South,5.8,-,0.00,Snow,Light Snow,180,2012-12-28 02:01:00
5:14 PM,30.2,28.4,93,29.02,3.0,South,3.5,-,0.00,Snow,Light Snow,180,2012-12-28 02:14:00
5:21 PM,30.2,28.4,93,29.01,4.0,Calm,Calm,-,0.00,Snow,Light Snow,0,2012-12-28 02:21:00
5:37 PM,30.2,28.4,93,29.00,6.0,East,3.5,-,0.00,Snow,Light Snow,90,2012-12-28 02:37:00
5:54 PM,32.0,28.4,87,28.99,3.0,SE,6.9,-,0.00,Snow,Light Snow,140,2012-12-28 02:54:00
5:56 PM,32.0,28.0,85,29.01,2.5,SE,8.1,-,0.00,Snow,Light Snow,130,2012-12-28 02:56:00
6:47 PM,32.0,28.4,87,28.96,4.0,SSE,8.1,-,0.00,Snow,Light Snow,160,2012-12-28 03:47:00
6:56 PM,32.0,28.9,88,28.97,3.0,ESE,8.1,-,0.00,,Overcast,120,2012-12-28 03:56:00
7:14 PM,32.0,28.4,87,28.95,5.0,SSE,5.8,-,0.00,,Overcast,160,2012-12-28 04:14:00
7:24 PM,32.0,28.4,87,28.94,4.0,SE,6.9,-,0.00,,Overcast,130,2012-12-28 04:24:00
7:46 PM,32.0,28.4,87,28.94,5.0,SSE,9.2,-,0.01,Snow,Light Snow,150,2012-12-28 04:46:00
7:56 PM,32.0,28.9,88,28.95,4.0,South,6.9,-,0.01,,Overcast,180,2012-12-28 04:56:00
8:00 PM,32.0,28.4,87,28.93,5.0,South,6.9,-,0.00,,Overcast,170,2012-12-28 05:00:00
8:18 PM,33.8,30.2,87,28.93,7.0,South,4.6,-,0.00,Snow,Light Snow,170,2012-12-28 05:18:00
8:31 PM,32.0,28.4,87,28.92,6.0,SW,3.5,-,0.00,Rain,Light Rain,220,2012-12-28 05:31:00
8:56 PM,32.0,28.9,88,28.92,6.0,SW,4.6,-,0.00,,Overcast,230,2012-12-28 05:56:00
9:08 PM,32.0,28.4,87,28.90,10.0,Calm,Calm,-,0.00,,Overcast,0,2012-12-28 06:08:00
9:56 PM,30.9,28.9,92,28.91,10.0,Calm,Calm,-,0.00,,Overcast,0,2012-12-28 06:56:00
10:56 PM,33.1,30.0,89,28.91,10.0,Calm,Calm,-,N/A,,Mostly Cloudy,0,2012-12-28 07:56:00
11:56 PM,39.9,30.0,68,28.93,10.0,SSW,11.5,-,N/A,,Partly Cloudy,210,2012-12-28 08:56:00